Time;durP1;ratioP1;P1;durP2;ratioP2;P2;SDS_P1;SDS_P2;PMS_P1;PMS_P2;Temp;Humidity;BMP_temperature;BMP_pressure;BME280_temperature;BME280_humidity;BME280_pressure;Samples;Min_cycle;Max_cycle;Signal;HPM_P1;HPM_P2
2023/07/21 00:00:21;;;;;;;4.63;3.80;;;;;;;;;;4994099;28;20026;-76
2023/07/21 00:02:48;;;;;;;6.35;4.80;;;;;;;;;;4994431;28;20542;-76
2023/07/21 00:05:15;;;;;;;5.60;4.47;;;;;;;;;;5008619;28;20077;-76
2023/07/21 00:07:40;;;;;;;5.95;4.05;;;;;;;;;;5008823;28;20061;-76
2023/07/21 00:10:07;;;;;;;4.68;4.22;;;;;;;;;;4993716;28;20514;-75
2023/07/21 00:12:37;;;;;;;7.32;4.22;;;;;;;;;;4993531;28;20026;-76
2023/07/21 00:15:07;;;;;;;6.10;4.38;;;;;;;;;;4993724;28;20033;-76
2023/07/21 00:17:34;;;;;;;8.63;4.35;;;;;;;;;;4994218;28;20731;-76
2023/07/21 00:20:10;;;;;;;5.03;4.22;;;;;;;;;;4993579;28;20404;-76
2023/07/21 00:22:36;;;;;;;7.10;4.22;;;;;;;;;;4993669;28;20121;-76
2023/07/21 00:25:05;;;;;;;4.47;4.07;;;;;;;;;;5008637;28;20110;-76
2023/07/21 00:27:30;;;;;;;7.72;4.47;;;;;;;;;;4993301;28;20037;-76
2023/07/21 00:29:56;;;;;;;8.77;4.68;;;;;;;;;;4993911;28;20390;-76
2023/07/21 00:32:22;;;;;;;5.75;4.40;;;;;;;;;;4993460;28;20461;-76
2023/07/21 00:34:48;;;;;;;6.88;4.78;;;;;;;;;;4993341;28;20030;-76
2023/07/21 00:37:14;;;;;;;4.03;3.60;;;;;;;;;;4993260;28;20045;-76
2023/07/21 00:39:40;;;;;;;4.93;3.78;;;;;;;;;;4993580;28;20113;-76
2023/07/21 00:42:06;;;;;;;7.00;4.03;;;;;;;;;;5008155;28;20022;-75
2023/07/21 00:44:31;;;;;;;8.90;4.10;;;;;;;;;;5008817;28;20068;-75
2023/07/21 00:46:57;;;;;;;7.05;3.88;;;;;;;;;;4993410;28;20026;-76
2023/07/21 00:49:22;;;;;;;5.63;3.70;;;;;;;;;;4993360;28;20546;-76
2023/07/21 00:51:48;;;;;;;4.45;3.85;;;;;;;;;;4991869;28;20069;-75
2023/07/21 00:54:13;;;;;;;6.18;3.80;;;;;;;;;;4992915;28;20034;-76
2023/07/21 00:56:39;;;;;;;8.73;3.85;;;;;;;;;;4993472;28;20073;-76
2023/07/21 00:59:04;;;;;;;5.70;3.55;;;;;;;;;;4993014;28;20030;-76
2023/07/21 01:01:29;;;;;;;4.97;3.30;;;;;;;;;;4992860;28;20411;-76
2023/07/21 01:03:56;;;;;;;4.13;3.72;;;;;;;;;;4993094;28;20398;-76
2023/07/21 01:06:27;;;;;;;6.18;3.42;;;;;;;;;;4993058;28;20505;-76
2023/07/21 01:08:54;;;;;;;5.97;3.33;;;;;;;;;;4993753;28;20041;-76
2023/07/21 01:11:20;;;;;;;4.70;3.47;;;;;;;;;;4992805;28;20030;-76
2023/07/21 01:13:45;;;;;;;7.13;3.58;;;;;;;;;;5007832;28;20039;-76
2023/07/21 01:16:12;;;;;;;9.05;3.75;;;;;;;;;;4992821;28;20034;-75
2023/07/21 01:18:37;;;;;;;6.53;3.72;;;;;;;;;;5007713;28;20069;-75
2023/07/21 01:21:04;;;;;;;6.15;3.65;;;;;;;;;;4992670;28;20084;-76
2023/07/21 01:23:37;;;;;;;4.70;3.30;;;;;;;;;;4993156;28;20026;-76
2023/07/21 01:26:03;;;;;;;6.90;3.30;;;;;;;;;;4992651;28;20031;-76
2023/07/21 01:28:29;;;;;;;4.05;3.38;;;;;;;;;;4992474;28;20524;-76
2023/07/21 01:30:56;;;;;;;5.90;3.42;;;;;;;;;;4992432;28;20410;-76
2023/07/21 01:33:22;;;;;;;5.13;3.67;;;;;;;;;;4992266;28;20033;-76
2023/07/21 01:35:49;;;;;;;4.80;3.22;;;;;;;;;;4992571;28;20026;-75
2023/07/21 01:38:17;;;;;;;4.82;3.33;;;;;;;;;;5007228;28;20034;-76
2023/07/21 01:40:43;;;;;;;4.53;3.78;;;;;;;;;;4991060;28;20126;-75
2023/07/21 01:43:09;;;;;;;4.18;3.20;;;;;;;;;;4992787;28;20065;-76
2023/07/21 01:45:35;;;;;;;5.40;3.70;;;;;;;;;;4992116;28;20543;-76
2023/07/21 01:48:00;;;;;;;7.80;3.92;;;;;;;;;;4992638;28;20064;-74
2023/07/21 01:50:27;;;;;;;6.50;3.65;;;;;;;;;;5007226;28;20558;-75
2023/07/21 01:52:53;;;;;;;13.70;4.43;;;;;;;;;;4991940;28;20037;-76
2023/07/21 01:55:23;;;;;;;7.03;4.30;;;;;;;;;;4991882;28;20072;-75
2023/07/21 01:57:54;;;;;;;8.77;4.70;;;;;;;;;;4991889;28;20069;-76
2023/07/21 02:00:20;;;;;;;5.05;4.35;;;;;;;;;;4991657;28;20039;-75
2023/07/21 02:02:47;;;;;;;6.53;4.55;;;;;;;;;;4991931;28;20256;-75
2023/07/21 02:05:25;;;;;;;7.75;4.72;;;;;;;;;;5006739;28;20503;-78
2023/07/21 02:07:50;;;;;;;10.98;5.10;;;;;;;;;;4991662;28;20502;-75
2023/07/21 02:10:16;;;;;;;7.68;5.18;;;;;;;;;;4992378;28;20137;-78
2023/07/21 02:12:42;;;;;;;9.40;5.35;;;;;;;;;;4993300;28;20050;-75
2023/07/21 02:15:08;;;;;;;7.75;5.45;;;;;;;;;;5007740;28;20069;-75
2023/07/21 02:17:34;;;;;;;7.47;5.32;;;;;;;;;;5006931;28;20473;-76
2023/07/21 02:19:59;;;;;;;11.18;5.95;;;;;;;;;;4991418;28;20329;-76
2023/07/21 02:22:25;;;;;;;8.20;5.60;;;;;;;;;;4991422;28;20089;-76
2023/07/21 02:24:50;;;;;;;6.32;5.45;;;;;;;;;;4991593;28;20394;-76
2023/07/21 02:27:15;;;;;;;6.47;5.60;;;;;;;;;;4991355;28;20065;-76
2023/07/21 02:29:41;;;;;;;13.45;5.72;;;;;;;;;;4991939;28;20098;-77
2023/07/21 02:32:07;;;;;;;7.18;4.93;;;;;;;;;;4991059;28;20066;-76
2023/07/21 02:34:32;;;;;;;7.22;5.60;;;;;;;;;;4991146;28;20034;-76
2023/07/21 02:36:57;;;;;;;8.85;5.75;;;;;;;;;;4990895;28;20046;-78
2023/07/21 02:39:22;;;;;;;10.88;5.15;;;;;;;;;;4991443;28;20545;-75
2023/07/21 02:41:48;;;;;;;7.72;4.63;;;;;;;;;;4991560;28;20053;-76
2023/07/21 02:44:13;;;;;;;7.85;4.38;;;;;;;;;;4991126;28;20096;-75
2023/07/21 02:46:39;;;;;;;10.70;4.88;;;;;;;;;;4991188;28;20061;-76
2023/07/21 02:49:04;;;;;;;14.00;4.18;;;;;;;;;;4991217;28;20722;-75
2023/07/21 02:51:29;;;;;;;8.75;4.43;;;;;;;;;;4990956;28;20023;-75
2023/07/21 02:53:55;;;;;;;4.43;3.78;;;;;;;;;;4991583;28;20486;-76
2023/07/21 02:56:20;;;;;;;6.00;4.50;;;;;;;;;;4990929;28;20078;-76
2023/07/21 02:58:45;;;;;;;6.15;4.28;;;;;;;;;;4989372;28;20093;-76
2023/07/21 03:01:12;;;;;;;5.32;4.47;;;;;;;;;;5005702;28;20035;-76
2023/07/21 03:03:39;;;;;;;9.13;5.45;;;;;;;;;;4990745;28;20491;-76
2023/07/21 03:06:06;;;;;;;8.55;5.28;;;;;;;;;;5005581;28;20023;-76
2023/07/21 03:08:31;;;;;;;5.65;4.68;;;;;;;;;;4991608;28;20430;-76
2023/07/21 03:10:57;;;;;;;6.82;4.72;;;;;;;;;;4991364;28;20030;-75
2023/07/21 03:13:24;;;;;;;8.82;5.13;;;;;;;;;;4989989;28;20041;-75
2023/07/21 03:15:50;;;;;;;7.65;5.50;;;;;;;;;;4990429;28;20038;-76
2023/07/21 03:18:15;;;;;;;9.05;5.22;;;;;;;;;;4990361;28;20541;-75
2023/07/21 03:20:40;;;;;;;17.45;5.53;;;;;;;;;;4991016;28;20124;-76
2023/07/21 03:23:07;;;;;;;10.55;6.07;;;;;;;;;;4990316;28;20426;-76
2023/07/21 03:25:37;;;;;;;13.00;6.72;;;;;;;;;;4990202;28;20038;-76
2023/07/21 03:28:03;;;;;;;14.45;6.55;;;;;;;;;;4990516;28;20034;-76
2023/07/21 03:30:28;;;;;;;10.13;6.22;;;;;;;;;;4990156;28;20027;-76
2023/07/21 03:32:54;;;;;;;10.75;6.00;;;;;;;;;;4990580;28;20026;-75
2023/07/21 03:35:19;;;;;;;8.70;5.70;;;;;;;;;;5004919;28;20038;-76
2023/07/21 03:37:45;;;;;;;11.82;6.45;;;;;;;;;;4989995;28;20030;-76
2023/07/21 03:40:11;;;;;;;12.52;6.63;;;;;;;;;;4989902;28;20065;-76
2023/07/21 03:42:36;;;;;;;14.10;6.45;;;;;;;;;;4989885;28;20511;-76
2023/07/21 03:45:06;;;;;;;12.35;6.20;;;;;;;;;;4990815;28;20022;-76
2023/07/21 03:47:33;;;;;;;20.63;6.55;;;;;;;;;;4990438;28;20066;-76
2023/07/21 03:49:58;;;;;;;6.03;3.88;;;;;;;;;;4990419;28;20399;-76
2023/07/21 03:52:24;;;;;;;5.93;5.00;;;;;;;;;;4989850;28;20105;-75
2023/07/21 03:54:49;;;;;;;6.97;4.65;;;;;;;;;;5004887;28;20038;-76
2023/07/21 03:57:15;;;;;;;6.78;4.97;;;;;;;;;;4989823;28;20022;-76
2023/07/21 03:59:41;;;;;;;8.20;4.88;;;;;;;;;;4990475;28;20109;-79
2023/07/21 04:02:07;;;;;;;10.13;5.53;;;;;;;;;;4989627;28;20038;-76
2023/07/21 04:04:33;;;;;;;10.25;5.07;;;;;;;;;;4989864;28;20073;-75
2023/07/21 04:07:05;;;;;;;9.27;5.22;;;;;;;;;;4989685;28;20026;-76
2023/07/21 04:09:31;;;;;;;10.77;5.10;;;;;;;;;;4989958;28;20050;-76
2023/07/21 04:11:56;;;;;;;12.07;5.10;;;;;;;;;;5005234;28;20475;-76
2023/07/21 04:14:21;;;;;;;6.93;5.32;;;;;;;;;;4989612;28;20034;-76
2023/07/21 04:16:47;;;;;;;11.05;5.47;;;;;;;;;;4988157;28;20038;-76
2023/07/21 04:19:12;;;;;;;9.32;5.63;;;;;;;;;;4989692;28;20073;-75
2023/07/21 04:21:37;;;;;;;6.88;5.55;;;;;;;;;;5004696;28;20031;-75
2023/07/21 04:24:03;;;;;;;8.95;5.55;;;;;;;;;;4990275;28;20018;-76
2023/07/21 04:26:28;;;;;;;6.00;4.93;;;;;;;;;;4993288;28;20065;-74
2023/07/21 04:28:54;;;;;;;8.70;5.38;;;;;;;;;;4993335;28;20072;-76
2023/07/21 04:31:21;;;;;;;7.38;5.28;;;;;;;;;;5008346;28;20034;-75
2023/07/21 04:33:48;;;;;;;8.93;5.88;;;;;;;;;;4993150;28;20078;-76
2023/07/21 04:36:13;;;;;;;8.05;5.45;;;;;;;;;;4993614;28;20041;-76
2023/07/21 04:38:38;;;;;;;9.23;5.15;;;;;;;;;;4993609;28;20026;-76
2023/07/21 04:41:04;;;;;;;9.88;5.45;;;;;;;;;;4993391;28;20031;-77
2023/07/21 04:43:29;;;;;;;18.40;5.50;;;;;;;;;;4993408;28;20038;-74
2023/07/21 04:45:55;;;;;;;6.88;4.70;;;;;;;;;;4992835;28;20034;-75
2023/07/21 04:48:21;;;;;;;8.10;5.68;;;;;;;;;;4996824;28;20430;-76
2023/07/21 04:50:51;;;;;;;12.23;5.63;;;;;;;;;;5002721;28;20026;-76
2023/07/21 04:53:16;;;;;;;8.93;5.00;;;;;;;;;;5000965;28;20132;-74
2023/07/21 04:55:41;;;;;;;5.72;4.60;;;;;;;;;;4999254;28;20117;-75
2023/07/21 04:58:08;;;;;;;8.73;5.75;;;;;;;;;;5000319;28;20128;-76
2023/07/21 05:00:34;;;;;;;11.18;5.90;;;;;;;;;;5004637;28;20092;-76
2023/07/21 05:03:00;;;;;;;8.40;5.32;;;;;;;;;;5001894;28;20414;-76
2023/07/21 05:05:27;;;;;;;8.75;6.30;;;;;;;;;;4994872;28;20398;-74
2023/07/21 05:07:52;;;;;;;9.93;5.93;;;;;;;;;;5000606;28;20492;-76
2023/07/21 05:10:17;;;;;;;7.88;5.80;;;;;;;;;;4986927;28;20038;-75
2023/07/21 05:12:43;;;;;;;10.75;6.25;;;;;;;;;;4999683;28;20038;-76
2023/07/21 05:15:08;;;;;;;12.23;6.40;;;;;;;;;;5000292;28;20022;-76
2023/07/21 05:17:34;;;;;;;9.85;6.82;;;;;;;;;;4999734;28;20084;-76
2023/07/21 05:19:59;;;;;;;8.85;5.93;;;;;;;;;;4998686;28;20048;-76
2023/07/21 05:22:25;;;;;;;11.18;6.60;;;;;;;;;;5000579;28;20042;-76
2023/07/21 05:24:51;;;;;;;11.32;6.13;;;;;;;;;;4998196;28;20034;-76
2023/07/21 05:27:16;;;;;;;7.90;6.15;;;;;;;;;;5004479;28;20040;-76
2023/07/21 05:29:42;;;;;;;8.88;5.72;;;;;;;;;;4998976;28;20029;-76
2023/07/21 05:32:07;;;;;;;8.27;6.18;;;;;;;;;;4999460;28;20037;-76
2023/07/21 05:34:33;;;;;;;8.70;5.78;;;;;;;;;;4996947;28;20041;-75
2023/07/21 05:36:59;;;;;;;12.10;6.15;;;;;;;;;;4993039;28;20049;-75
2023/07/21 05:39:28;;;;;;;9.90;5.50;;;;;;;;;;4999708;28;20076;-75
2023/07/21 05:41:59;;;;;;;7.97;5.90;;;;;;;;;;5011590;28;20018;-75
2023/07/21 05:44:26;;;;;;;6.68;5.10;;;;;;;;;;4986913;28;20507;-77
2023/07/21 05:46:51;;;;;;;8.07;5.47;;;;;;;;;;4992830;28;20129;-76
2023/07/21 05:49:17;;;;;;;7.68;5.03;;;;;;;;;;4995406;28;20664;-77
2023/07/21 05:51:42;;;;;;;5.60;4.57;;;;;;;;;;4999976;28;20030;-75
2023/07/21 05:54:08;;;;;;;5.38;3.90;;;;;;;;;;4992241;28;20045;-76
2023/07/21 05:56:34;;;;;;;4.57;4.10;;;;;;;;;;4994868;28;20030;-76
2023/07/21 05:58:59;;;;;;;7.75;4.25;;;;;;;;;;5012784;28;20062;-77
2023/07/21 06:01:25;;;;;;;6.72;3.83;;;;;;;;;;5008641;28;20042;-77
2023/07/21 06:03:50;;;;;;;4.68;3.60;;;;;;;;;;4990905;28;20047;-77
2023/07/21 06:06:16;;;;;;;5.38;3.55;;;;;;;;;;4992981;28;20453;-76
2023/07/21 06:08:41;;;;;;;6.13;3.05;;;;;;;;;;5007535;28;20053;-76
2023/07/21 06:11:06;;;;;;;5.88;3.22;;;;;;;;;;4999725;28;20125;-76
2023/07/21 06:13:32;;;;;;;5.43;2.97;;;;;;;;;;4997193;28;20494;-76
2023/07/21 06:15:58;;;;;;;3.78;3.35;;;;;;;;;;5015845;28;20049;-76
2023/07/21 06:18:23;;;;;;;4.15;3.58;;;;;;;;;;4982728;28;20483;-76
2023/07/21 06:20:54;;;;;;;6.70;3.38;;;;;;;;;;4974021;28;20035;-77
2023/07/21 06:23:20;;;;;;;5.55;3.10;;;;;;;;;;4995476;28;20461;-77
2023/07/21 06:25:45;;;;;;;4.28;3.25;;;;;;;;;;4990940;28;20043;-76
2023/07/21 06:28:11;;;;;;;8.15;4.38;;;;;;;;;;4998136;28;20113;-77
2023/07/21 06:30:37;;;;;;;4.30;3.33;;;;;;;;;;4990003;28;20392;-77
2023/07/21 06:33:06;;;;;;;4.32;3.35;;;;;;;;;;4993188;28;20028;-76
2023/07/21 06:35:33;;;;;;;4.78;3.20;;;;;;;;;;4996437;28;20120;-76
2023/07/21 06:37:59;;;;;;;5.25;3.17;;;;;;;;;;5009268;28;20061;-77
2023/07/21 06:40:24;;;;;;;4.95;3.13;;;;;;;;;;5014240;28;20050;-77
2023/07/21 06:42:50;;;;;;;6.82;3.45;;;;;;;;;;5003363;28;20105;-76
2023/07/21 06:45:16;;;;;;;6.22;2.92;;;;;;;;;;4994465;28;20049;-76
2023/07/21 06:47:42;;;;;;;7.03;3.47;;;;;;;;;;4993262;28;20437;-76
2023/07/21 06:50:08;;;;;;;3.97;2.92;;;;;;;;;;4982281;28;20034;-77
2023/07/21 06:52:34;;;;;;;10.52;3.38;;;;;;;;;;4993498;28;20096;-76
2023/07/21 06:54:59;;;;;;;4.63;3.08;;;;;;;;;;4992842;28;20101;-76
2023/07/21 06:57:24;;;;;;;11.00;3.53;;;;;;;;;;5004598;28;20174;-77
2023/07/21 06:59:50;;;;;;;5.22;3.20;;;;;;;;;;4986158;28;20428;-77
2023/07/21 07:02:15;;;;;;;7.53;2.95;;;;;;;;;;5009566;28;20049;-76
2023/07/21 07:04:41;;;;;;;3.70;3.30;;;;;;;;;;4974961;28;20406;-77
2023/07/21 07:07:06;;;;;;;5.28;3.10;;;;;;;;;;4974004;28;20133;-77
2023/07/21 07:09:32;;;;;;;5.00;3.38;;;;;;;;;;4982283;28;20034;-77
2023/07/21 07:11:57;;;;;;;3.53;3.20;;;;;;;;;;4972509;28;20574;-76
2023/07/21 07:14:22;;;;;;;5.72;3.60;;;;;;;;;;4992548;28;20085;-76
2023/07/21 07:16:48;;;;;;;3.58;3.20;;;;;;;;;;4990331;28;20038;-76
2023/07/21 07:19:13;;;;;;;5.68;4.03;;;;;;;;;;4969754;28;20145;-75
2023/07/21 07:21:38;;;;;;;3.78;3.47;;;;;;;;;;4965148;28;20042;-77
2023/07/21 07:24:04;;;;;;;4.35;3.50;;;;;;;;;;4944964;28;20034;-75
2023/07/21 07:26:31;;;;;;;4.85;3.47;;;;;;;;;;4966135;28;20073;-77
2023/07/21 07:28:57;;;;;;;6.72;3.58;;;;;;;;;;5011425;28;20051;-77
2023/07/21 07:31:22;;;;;;;5.88;3.30;;;;;;;;;;5008907;28;20087;-77
2023/07/21 07:33:47;;;;;;;6.78;3.70;;;;;;;;;;4985681;28;20038;-77
2023/07/21 07:36:13;;;;;;;5.38;3.35;;;;;;;;;;4970691;28;20416;-77
2023/07/21 07:38:38;;;;;;;3.72;3.20;;;;;;;;;;4977333;28;20559;-77
2023/07/21 07:41:06;;;;;;;9.38;3.55;;;;;;;;;;4987905;28;20114;-77
2023/07/21 07:43:32;;;;;;;5.85;3.22;;;;;;;;;;4990363;28;20041;-77
2023/07/21 07:45:58;;;;;;;3.80;2.95;;;;;;;;;;4995195;28;20038;-78
2023/07/21 07:48:24;;;;;;;6.13;4.45;;;;;;;;;;5003367;28;20042;-77
2023/07/21 07:50:52;;;;;;;12.23;3.55;;;;;;;;;;4971236;28;20475;-77
2023/07/21 07:53:17;;;;;;;6.20;3.38;;;;;;;;;;4971789;28;20038;-77
2023/07/21 07:55:43;;;;;;;6.35;3.67;;;;;;;;;;4972548;28;20911;-78
2023/07/21 07:58:09;;;;;;;7.95;4.47;;;;;;;;;;4981366;28;20036;-79
2023/07/21 08:00:40;;;;;;;6.43;4.28;;;;;;;;;;5013378;28;20046;-78
2023/07/21 08:03:06;;;;;;;7.07;3.90;;;;;;;;;;5012448;28;20537;-78
2023/07/21 08:05:33;;;;;;;7.28;3.95;;;;;;;;;;4993532;28;20060;-78
2023/07/21 08:08:00;;;;;;;4.90;3.67;;;;;;;;;;4997813;28;20026;-79
2023/07/21 08:10:27;;;;;;;12.10;3.33;;;;;;;;;;5000262;28;20109;-77
2023/07/21 08:12:54;;;;;;;3.80;3.28;;;;;;;;;;5004071;28;20069;-78
2023/07/21 08:15:19;;;;;;;6.20;2.95;;;;;;;;;;4977587;28;20018;-78
2023/07/21 08:17:44;;;;;;;2.92;2.60;;;;;;;;;;4986924;28;20393;-79
2023/07/21 08:20:10;;;;;;;3.80;2.60;;;;;;;;;;5000375;28;20600;-79
2023/07/21 08:22:36;;;;;;;5.45;2.30;;;;;;;;;;5003502;28;20072;-78
2023/07/21 08:25:01;;;;;;;6.18;2.50;;;;;;;;;;5021442;28;20037;-78
2023/07/21 08:27:27;;;;;;;3.15;2.60;;;;;;;;;;4994551;28;20034;-79
2023/07/21 08:29:53;;;;;;;3.33;2.83;;;;;;;;;;4994356;28;20031;-78
2023/07/21 08:32:18;;;;;;;2.58;2.38;;;;;;;;;;4991921;28;20145;-78
2023/07/21 08:34:44;;;;;;;2.90;2.30;;;;;;;;;;4986004;28;20418;-78
2023/07/21 08:37:09;;;;;;;2.85;2.65;;;;;;;;;;4980314;28;20037;-78
2023/07/21 08:39:35;;;;;;;2.60;2.40;;;;;;;;;;5005223;28;20045;-76
2023/07/21 08:42:02;;;;;;;2.90;2.40;;;;;;;;;;4991169;28;20065;-78
2023/07/21 08:44:29;;;;;;;3.97;2.28;;;;;;;;;;4989761;28;20375;-78
2023/07/21 08:46:55;;;;;;;4.55;2.80;;;;;;;;;;4991238;28;20034;-75
2023/07/21 08:49:20;;;;;;;4.10;2.70;;;;;;;;;;4990856;28;20817;-78
2023/07/21 08:51:45;;;;;;;3.85;2.42;;;;;;;;;;4992150;28;21101;-78
2023/07/21 08:54:12;;;;;;;3.22;2.40;;;;;;;;;;4974921;28;20128;-78
2023/07/21 08:56:37;;;;;;;4.45;2.38;;;;;;;;;;4988860;28;20030;-77
2023/07/21 08:59:02;;;;;;;2.67;1.80;;;;;;;;;;4993595;28;20040;-78
2023/07/21 09:01:28;;;;;;;2.35;1.98;;;;;;;;;;4988290;28;20053;-78
2023/07/21 09:03:53;;;;;;;6.82;2.63;;;;;;;;;;4991141;28;20133;-78
2023/07/21 09:06:19;;;;;;;2.40;1.90;;;;;;;;;;4988180;28;20077;-78
2023/07/21 09:08:48;;;;;;;2.60;1.95;;;;;;;;;;4992820;28;20119;-78
2023/07/21 09:11:14;;;;;;;2.40;1.98;;;;;;;;;;4988978;28;20037;-78
2023/07/21 09:13:40;;;;;;;2.50;2.30;;;;;;;;;;4994103;28;20426;-78
2023/07/21 09:16:05;;;;;;;3.05;2.20;;;;;;;;;;4985487;28;20105;-77
2023/07/21 09:18:32;;;;;;;3.35;2.20;;;;;;;;;;4990444;28;20096;-78
2023/07/21 09:20:57;;;;;;;2.80;2.08;;;;;;;;;;4990333;28;20037;-78
2023/07/21 09:23:23;;;;;;;3.17;2.40;;;;;;;;;;4990083;28;20038;-78
2023/07/21 09:25:59;;;;;;;3.40;2.30;;;;;;;;;;4985796;28;20038;-78
2023/07/21 09:28:43;;;;;;;2.67;2.25;;;;;;;;;;4999984;28;20046;-78
2023/07/21 09:31:09;;;;;;;2.83;2.50;;;;;;;;;;4994845;28;20056;-78
2023/07/21 09:33:38;;;;;;;2.97;2.65;;;;;;;;;;4996923;28;20142;-78
2023/07/21 09:36:07;;;;;;;2.78;2.50;;;;;;;;;;4999105;28;20018;-75
2023/07/21 09:38:34;;;;;;;4.20;2.45;;;;;;;;;;4987648;28;20066;-75
2023/07/21 09:41:04;;;;;;;10.10;3.03;;;;;;;;;;4996221;28;20065;-75
2023/07/21 09:43:30;;;;;;;3.92;2.97;;;;;;;;;;4992562;28;20511;-75
2023/07/21 09:45:59;;;;;;;5.38;2.75;;;;;;;;;;4976481;28;20121;-75
2023/07/21 09:48:25;;;;;;;3.80;2.40;;;;;;;;;;4970747;28;20550;-77
2023/07/21 09:50:52;;;;;;;3.03;2.38;;;;;;;;;;5004641;28;20030;-77
2023/07/21 09:53:20;;;;;;;2.70;2.50;;;;;;;;;;5008153;28;20088;-78
2023/07/21 09:55:48;;;;;;;3.45;2.47;;;;;;;;;;5009655;28;20700;-77
2023/07/21 09:58:16;;;;;;;6.78;2.70;;;;;;;;;;4997108;28;20084;-77
2023/07/21 10:00:42;;;;;;;4.30;2.42;;;;;;;;;;4991898;28;20089;-78
2023/07/21 10:03:08;;;;;;;4.40;2.92;;;;;;;;;;5001405;28;20030;-77
2023/07/21 10:05:36;;;;;;;3.22;2.92;;;;;;;;;;4986662;28;20363;-77
2023/07/21 10:08:03;;;;;;;4.50;2.88;;;;;;;;;;4978288;28;20050;-77
2023/07/21 10:10:29;;;;;;;3.42;2.67;;;;;;;;;;4972941;28;20548;-78
2023/07/21 10:12:55;;;;;;;3.00;2.53;;;;;;;;;;4969213;28;20038;-75
2023/07/21 10:15:31;;;;;;;2.90;2.70;;;;;;;;;;4987655;28;20122;-75
2023/07/21 10:17:58;;;;;;;7.45;2.92;;;;;;;;;;4990920;28;20029;-75
2023/07/21 10:20:49;;;;;;;3.28;2.97;;;;;;;;;;4991402;28;20038;-75
2023/07/21 10:23:16;;;;;;;2.92;2.58;;;;;;;;;;4989477;28;20068;-75
2023/07/21 10:25:59;;;;;;;2.70;2.50;;;;;;;;;;4992424;28;20401;-78
2023/07/21 10:28:30;;;;;;;3.25;2.85;;;;;;;;;;4997009;28;20038;-75
2023/07/21 10:31:25;;;;;;;6.03;2.72;;;;;;;;;;4997673;28;20046;-75
2023/07/21 10:34:09;;;;;;;5.07;2.50;;;;;;;;;;4987433;28;20084;-76
2023/07/21 10:36:53;;;;;;;;;;;;;;;;;;4988982;28;20092;-75
2023/07/21 10:39:31;;;;;;;4.88;2.33;;;;;;;;;;4990491;28;19979;-75
2023/07/21 10:42:05;;;;;;;3.05;2.72;;;;;;;;;;4990017;28;20430;-75
2023/07/21 10:44:35;;;;;;;;;;;;;;;;;;4993285;28;20045;-75
2023/07/21 10:47:00;;;;;;;3.00;2.78;;;;;;;;;;4989525;28;19921;-76
2023/07/21 10:49:26;;;;;;;2.63;2.42;;;;;;;;;;4993718;28;20035;-77
2023/07/21 10:51:51;;;;;;;2.58;2.30;;;;;;;;;;5006732;28;20232;-77
2023/07/21 10:54:17;;;;;;;2.45;2.25;;;;;;;;;;4991098;28;20029;-75
2023/07/21 10:56:48;;;;;;;2.97;2.60;;;;;;;;;;4989934;28;20410;-75
2023/07/21 10:59:15;;;;;;;2.67;2.47;;;;;;;;;;4986608;28;20042;-75
2023/07/21 11:01:40;;;;;;;2.75;2.55;;;;;;;;;;4984161;28;20042;-76
2023/07/21 11:04:06;;;;;;;2.67;2.47;;;;;;;;;;5005959;28;20038;-78
2023/07/21 11:06:31;;;;;;;3.55;2.50;;;;;;;;;;4995112;28;20038;-75
2023/07/21 11:08:57;;;;;;;2.58;2.30;;;;;;;;;;4987576;28;20026;-75
2023/07/21 11:11:22;;;;;;;2.78;2.25;;;;;;;;;;5001646;28;20053;-75
2023/07/21 11:13:47;;;;;;;4.97;2.40;;;;;;;;;;4979889;28;20230;-75
2023/07/21 11:16:13;;;;;;;2.65;2.10;;;;;;;;;;4985855;28;20392;-77
2023/07/21 11:18:42;;;;;;;2.58;2.00;;;;;;;;;;4984654;28;20035;-77
2023/07/21 11:21:07;;;;;;;3.45;2.20;;;;;;;;;;4987416;28;20037;-77
2023/07/21 11:23:33;;;;;;;2.20;2.00;;;;;;;;;;5006607;28;20030;-77
2023/07/21 11:26:03;;;;;;;2.60;2.08;;;;;;;;;;4986443;28;20042;-77
2023/07/21 11:28:29;;;;;;;2.38;2.03;;;;;;;;;;4986798;28;20481;-77
2023/07/21 11:30:54;;;;;;;4.10;1.85;;;;;;;;;;4989736;28;20034;-77
2023/07/21 11:33:20;;;;;;;2.60;2.40;;;;;;;;;;4994665;28;20152;-77
2023/07/21 11:35:46;;;;;;;2.50;2.15;;;;;;;;;;4990078;28;20109;-77
2023/07/21 11:38:12;;;;;;;5.10;2.25;;;;;;;;;;4992586;28;20034;-78
2023/07/21 11:40:37;;;;;;;2.40;2.20;;;;;;;;;;4984274;28;20080;-77
2023/07/21 11:43:07;;;;;;;3.53;2.35;;;;;;;;;;4987578;28;20038;-77
2023/07/21 11:45:39;;;;;;;2.55;2.35;;;;;;;;;;4988249;28;20096;-80
2023/07/21 11:48:13;;;;;;;2.70;2.50;;;;;;;;;;4993944;28;20045;-77
2023/07/21 11:50:49;;;;;;;5.55;2.42;;;;;;;;;;4994637;28;20077;-79
2023/07/21 11:53:15;;;;;;;2.45;2.10;;;;;;;;;;4998600;28;20042;-79
2023/07/21 11:55:40;;;;;;;2.38;1.98;;;;;;;;;;5012319;28;20041;-80
2023/07/21 11:58:05;;;;;;;3.17;2.20;;;;;;;;;;4994905;28;20026;-78
2023/07/21 12:00:32;;;;;;;2.38;2.17;;;;;;;;;;5002641;28;20030;-77
2023/07/21 12:02:58;;;;;;;8.30;2.10;;;;;;;;;;4988959;28;20513;-77
2023/07/21 12:05:24;;;;;;;3.20;2.10;;;;;;;;;;5011912;28;20060;-77
2023/07/21 12:07:50;;;;;;;5.13;2.20;;;;;;;;;;4998506;28;20443;-77
2023/07/21 12:10:15;;;;;;;2.00;1.90;;;;;;;;;;5012946;28;20125;-78
2023/07/21 12:12:40;;;;;;;2.38;2.17;;;;;;;;;;4996420;28;20550;-79
2023/07/21 12:15:07;;;;;;;4.18;2.17;;;;;;;;;;4998562;28;20386;-80
2023/07/21 12:17:33;;;;;;;2.35;2.15;;;;;;;;;;5012459;28;20022;-80
2023/07/21 12:19:58;;;;;;;4.57;2.38;;;;;;;;;;4997376;28;20057;-79
2023/07/21 12:22:25;;;;;;;4.78;2.13;;;;;;;;;;4972297;28;20038;-80
2023/07/21 12:24:50;;;;;;;4.70;2.17;;;;;;;;;;4989386;28;20179;-79
2023/07/21 12:27:15;;;;;;;2.28;2.08;;;;;;;;;;5011636;28;20532;-80
2023/07/21 12:29:41;;;;;;;2.95;2.08;;;;;;;;;;5012766;28;20022;-79
2023/07/21 12:32:07;;;;;;;2.30;2.10;;;;;;;;;;4997871;28;20407;-79
2023/07/21 12:34:32;;;;;;;2.53;2.13;;;;;;;;;;4977339;28;20038;-80
2023/07/21 12:36:58;;;;;;;2.72;2.00;;;;;;;;;;4976064;28;20602;-80
2023/07/21 12:39:23;;;;;;;4.53;2.20;;;;;;;;;;4975821;28;20043;-80
2023/07/21 12:41:49;;;;;;;2.17;1.98;;;;;;;;;;4975739;28;20038;-80
2023/07/21 12:44:14;;;;;;;2.80;2.00;;;;;;;;;;4983517;28;20581;-80
2023/07/21 12:46:40;;;;;;;3.63;2.20;;;;;;;;;;4977976;28;20045;-79
2023/07/21 12:49:05;;;;;;;2.33;2.10;;;;;;;;;;4992500;28;20022;-78
2023/07/21 12:51:30;;;;;;;2.25;2.03;;;;;;;;;;4993680;28;20038;-78
2023/07/21 12:53:56;;;;;;;2.35;2.03;;;;;;;;;;4988795;28;20034;-79
2023/07/21 12:56:21;;;;;;;2.53;1.77;;;;;;;;;;5001905;28;20035;-80
2023/07/21 12:58:47;;;;;;;5.38;2.20;;;;;;;;;;4986153;28;20038;-76
2023/07/21 13:01:12;;;;;;;2.30;2.10;;;;;;;;;;4977371;28;20038;-79
2023/07/21 13:03:37;;;;;;;2.50;2.30;;;;;;;;;;4986820;28;20030;-78
2023/07/21 13:06:03;;;;;;;2.30;2.13;;;;;;;;;;4987873;28;20026;-78
2023/07/21 13:08:28;;;;;;;2.42;2.22;;;;;;;;;;4987874;28;20471;-76
2023/07/21 13:10:53;;;;;;;13.50;2.40;;;;;;;;;;4989065;28;20038;-78
2023/07/21 13:13:19;;;;;;;6.55;1.90;;;;;;;;;;4991645;28;20499;-77
2023/07/21 13:15:44;;;;;;;2.30;2.20;;;;;;;;;;4992052;28;20101;-77
2023/07/21 13:18:09;;;;;;;2.40;2.20;;;;;;;;;;4991170;28;20429;-76
2023/07/21 13:20:35;;;;;;;3.03;2.25;;;;;;;;;;4994403;28;20062;-77
2023/07/21 13:23:00;;;;;;;3.55;2.05;;;;;;;;;;4992392;28;20603;-77
2023/07/21 13:25:25;;;;;;;2.63;2.30;;;;;;;;;;4988514;28;20038;-77
2023/07/21 13:27:51;;;;;;;5.43;2.50;;;;;;;;;;4987584;28;20085;-77
2023/07/21 13:30:16;;;;;;;4.75;2.33;;;;;;;;;;4996349;28;20121;-76
2023/07/21 13:32:41;;;;;;;2.03;1.90;;;;;;;;;;4977305;28;20038;-76
2023/07/21 13:35:07;;;;;;;2.38;2.05;;;;;;;;;;4999815;28;20376;-76
2023/07/21 13:37:35;;;;;;;2.33;2.13;;;;;;;;;;4996611;28;20030;-76
2023/07/21 13:40:00;;;;;;;2.22;2.10;;;;;;;;;;4988870;28;20047;-77
2023/07/21 13:42:26;;;;;;;3.25;2.58;;;;;;;;;;4983889;28;20053;-76
2023/07/21 13:44:52;;;;;;;2.45;2.00;;;;;;;;;;4995078;28;20029;-77
2023/07/21 13:47:17;;;;;;;4.53;1.98;;;;;;;;;;4992144;28;20038;-77
2023/07/21 13:49:42;;;;;;;5.53;1.95;;;;;;;;;;4995654;28;20048;-77
2023/07/21 13:52:08;;;;;;;2.78;2.10;;;;;;;;;;4992488;28;20054;-76
2023/07/21 13:54:33;;;;;;;2.30;1.95;;;;;;;;;;4982300;28;20113;-77
2023/07/21 13:56:59;;;;;;;1.88;1.77;;;;;;;;;;4981981;28;20033;-77
2023/07/21 13:59:24;;;;;;;3.10;1.98;;;;;;;;;;4991804;28;20065;-77
2023/07/21 14:01:50;;;;;;;14.77;2.17;;;;;;;;;;4987766;28;20042;-77
2023/07/21 14:04:16;;;;;;;3.85;2.53;;;;;;;;;;4980093;28;20632;-77
2023/07/21 14:06:42;;;;;;;3.97;2.15;;;;;;;;;;4986367;28;20189;-76
2023/07/21 14:09:07;;;;;;;2.20;2.00;;;;;;;;;;4992795;28;20018;-76
2023/07/21 14:11:36;;;;;;;1.98;1.80;;;;;;;;;;4995497;28;20061;-77
2023/07/21 14:14:02;;;;;;;2.70;2.00;;;;;;;;;;4991645;28;20282;-76
2023/07/21 14:16:29;;;;;;;3.47;2.05;;;;;;;;;;4992795;28;20045;-77
2023/07/21 14:18:54;;;;;;;2.05;1.83;;;;;;;;;;4996895;28;20061;-76
2023/07/21 14:21:21;;;;;;;4.72;1.95;;;;;;;;;;4988651;28;20506;-77
2023/07/21 14:23:51;;;;;;;2.13;1.90;;;;;;;;;;4991913;28;20048;-76
2023/07/21 14:26:17;;;;;;;3.85;2.03;;;;;;;;;;4993199;28;20034;-77
2023/07/21 14:28:42;;;;;;;2.63;2.10;;;;;;;;;;5004352;28;20358;-76
2023/07/21 14:31:08;;;;;;;2.55;2.08;;;;;;;;;;4989713;28;20096;-77
2023/07/21 14:33:33;;;;;;;2.40;2.20;;;;;;;;;;4990967;28;20034;-76
2023/07/21 14:35:59;;;;;;;3.47;2.10;;;;;;;;;;4986810;28;20040;-76
2023/07/21 14:38:25;;;;;;;2.53;2.03;;;;;;;;;;4979328;28;20050;-77